Time;durP1;ratioP1;P1;durP2;ratioP2;P2;SDS_P1;SDS_P2;PMS_P1;PMS_P2;Temp;Humidity;BMP_temperature;BMP_pressure;BME280_temperature;BME280_humidity;BME280_pressure;Samples;Min_cycle;Max_cycle;Signal;HPM_P1;HPM_P2
2023/09/27 00:02:29;;;;;;;13.82;7.57;;;;;;;;;;4877806;29;20416;-82
2023/09/27 00:05:16;;;;;;;15.35;7.38;;;;;;;;;;4872741;29;20052;-81
2023/09/27 00:08:01;;;;;;;13.07;7.55;;;;;;;;;;4873012;29;20063;-82
2023/09/27 00:10:48;;;;;;;16.30;6.68;;;;;;;;;;4883630;29;20293;-83
2023/09/27 00:13:33;;;;;;;19.30;6.88;;;;;;;;;;4876038;29;20496;-82
2023/09/27 00:16:19;;;;;;;14.43;6.97;;;;;;;;;;4884482;29;20404;-83
2023/09/27 00:19:05;;;;;;;20.65;7.97;;;;;;;;;;4883091;29;20045;-82
2023/09/27 00:21:51;;;;;;;12.82;7.28;;;;;;;;;;4884025;29;20052;-82
2023/09/27 00:24:36;;;;;;;11.80;8.13;;;;;;;;;;4882750;29;20052;-82
2023/09/27 00:27:21;;;;;;;20.42;7.40;;;;;;;;;;4876643;29;20057;-83
2023/09/27 00:30:09;;;;;;;14.50;7.55;;;;;;;;;;4872403;29;20040;-83
2023/09/27 00:32:54;;;;;;;9.52;6.35;;;;;;;;;;4872478;29;20056;-81
2023/09/27 00:35:40;;;;;;;17.65;7.43;;;;;;;;;;4871187;29;20053;-83
2023/09/27 00:38:26;;;;;;;11.75;7.28;;;;;;;;;;4872015;29;20125;-83
2023/09/27 00:41:11;;;;;;;13.82;7.47;;;;;;;;;;4871867;29;20044;-83
2023/09/27 00:43:57;;;;;;;13.70;6.32;;;;;;;;;;4876972;29;20464;-83
2023/09/27 00:46:43;;;;;;;16.75;6.65;;;;;;;;;;4864517;29;20424;-83
2023/09/27 00:49:29;;;;;;;17.27;6.47;;;;;;;;;;4877607;29;20048;-83
2023/09/27 00:52:14;;;;;;;15.88;6.95;;;;;;;;;;4871484;29;20464;-82
2023/09/27 00:55:00;;;;;;;12.45;6.80;;;;;;;;;;4876764;29;20492;-82
2023/09/27 00:57:46;;;;;;;12.00;6.95;;;;;;;;;;4872188;29;20388;-82
2023/09/27 01:00:33;;;;;;;15.48;6.72;;;;;;;;;;4876052;29;20052;-82
2023/09/27 01:03:18;;;;;;;13.38;6.47;;;;;;;;;;4876332;29;20476;-82
2023/09/27 01:06:04;;;;;;;15.00;6.45;;;;;;;;;;4863977;29;20408;-82
2023/09/27 01:08:49;;;;;;;16.83;6.75;;;;;;;;;;4857795;29;20453;-82
2023/09/27 01:11:35;;;;;;;13.73;7.03;;;;;;;;;;4877567;29;20052;-82
2023/09/27 01:14:21;;;;;;;10.35;6.65;;;;;;;;;;4863916;29;20408;-82
2023/09/27 01:17:10;;;;;;;10.30;6.72;;;;;;;;;;4871286;29;20402;-82
2023/09/27 01:19:55;;;;;;;14.25;7.10;;;;;;;;;;4877203;29;20418;-82
2023/09/27 01:22:42;;;;;;;15.35;7.72;;;;;;;;;;4863508;29;20396;-82
2023/09/27 01:25:36;;;;;;;10.85;7.00;;;;;;;;;;4878004;29;20453;-84
2023/09/27 01:28:23;;;;;;;12.10;7.80;;;;;;;;;;4876444;29;20488;-81
2023/09/27 01:31:09;;;;;;;14.95;9.00;;;;;;;;;;4871639;29;20040;-83
2023/09/27 01:33:55;;;;;;;11.50;7.93;;;;;;;;;;4872178;29;20064;-82
2023/09/27 01:36:40;;;;;;;14.18;7.72;;;;;;;;;;4863360;29;20408;-82
2023/09/27 01:39:26;;;;;;;11.20;6.93;;;;;;;;;;4876509;29;20041;-82
2023/09/27 01:42:12;;;;;;;15.13;6.75;;;;;;;;;;4864301;29;20532;-82
2023/09/27 01:44:58;;;;;;;13.48;6.68;;;;;;;;;;4877469;29;20733;-82
2023/09/27 01:47:44;;;;;;;95.57;63.50;;;;;;;;;;4858054;29;20408;-82
2023/09/27 01:50:32;;;;;;;47.47;36.03;;;;;;;;;;4876175;29;20060;-82
2023/09/27 01:53:17;;;;;;;93.63;60.92;;;;;;;;;;4871342;29;20408;-82
2023/09/27 01:56:03;;;;;;;68.43;43.85;;;;;;;;;;4870895;29;20049;-81
2023/09/27 01:58:48;;;;;;;35.80;26.52;;;;;;;;;;4875770;29;20052;-82
2023/09/27 02:01:34;;;;;;;28.38;15.95;;;;;;;;;;4863637;29;20403;-82
2023/09/27 02:04:20;;;;;;;19.33;10.55;;;;;;;;;;4857066;29;20408;-82
2023/09/27 02:07:05;;;;;;;15.85;9.15;;;;;;;;;;4850544;29;20056;-83
2023/09/27 02:09:51;;;;;;;14.35;7.53;;;;;;;;;;4871008;29;20052;-83
2023/09/27 02:12:37;;;;;;;15.57;7.75;;;;;;;;;;4870097;29;20064;-82
2023/09/27 02:15:23;;;;;;;20.05;7.63;;;;;;;;;;4870291;29;20048;-82
2023/09/27 02:18:09;;;;;;;14.95;7.10;;;;;;;;;;4869561;29;20488;-83
2023/09/27 02:20:54;;;;;;;14.25;7.72;;;;;;;;;;4872182;29;20415;-82
2023/09/27 02:23:40;;;;;;;20.10;6.97;;;;;;;;;;4871587;29;20044;-82
2023/09/27 02:26:25;;;;;;;14.00;6.75;;;;;;;;;;4857512;29;20052;-82
2023/09/27 02:29:11;;;;;;;11.80;6.75;;;;;;;;;;4872100;29;20033;-82
2023/09/27 02:31:57;;;;;;;19.25;8.02;;;;;;;;;;4871231;29;20048;-82
2023/09/27 02:34:42;;;;;;;16.23;8.30;;;;;;;;;;4870299;29;20400;-82
2023/09/27 02:37:28;;;;;;;18.05;8.45;;;;;;;;;;4864021;29;20060;-82
2023/09/27 02:40:14;;;;;;;13.55;7.72;;;;;;;;;;4876027;29;20461;-82
2023/09/27 02:42:59;;;;;;;15.90;8.43;;;;;;;;;;4863118;29;20048;-82
2023/09/27 02:45:45;;;;;;;18.00;8.60;;;;;;;;;;4863157;29;20055;-82
2023/09/27 02:48:30;;;;;;;13.45;8.15;;;;;;;;;;4876428;29;20048;-81
2023/09/27 02:51:16;;;;;;;17.27;8.15;;;;;;;;;;4871476;29;20396;-82
2023/09/27 02:54:02;;;;;;;21.42;8.40;;;;;;;;;;4869881;29;20396;-81
2023/09/27 02:56:47;;;;;;;17.52;8.82;;;;;;;;;;4866663;29;20048;-81
2023/09/27 02:59:33;;;;;;;20.48;8.85;;;;;;;;;;4870000;29;20041;-82
2023/09/27 03:02:20;;;;;;;16.90;8.52;;;;;;;;;;4869653;29;20056;-82
2023/09/27 03:05:07;;;;;;;16.30;8.40;;;;;;;;;;4862532;29;20044;-83
2023/09/27 03:07:52;;;;;;;18.38;8.60;;;;;;;;;;4862524;29;20119;-82
2023/09/27 03:10:38;;;;;;;15.52;8.90;;;;;;;;;;4863810;29;20041;-83
2023/09/27 03:13:25;;;;;;;15.32;9.68;;;;;;;;;;4875716;29;20056;-82
2023/09/27 03:16:10;;;;;;;16.42;8.82;;;;;;;;;;4874597;29;20057;-83
2023/09/27 03:18:58;;;;;;;14.93;8.60;;;;;;;;;;4875405;29;20048;-84
2023/09/27 03:21:43;;;;;;;17.42;8.43;;;;;;;;;;4874576;29;20052;-82
2023/09/27 03:24:30;;;;;;;19.48;8.98;;;;;;;;;;4869215;29;20057;-81
2023/09/27 03:27:16;;;;;;;14.13;8.05;;;;;;;;;;4870291;29;20044;-81
2023/09/27 03:30:01;;;;;;;19.90;8.60;;;;;;;;;;4875048;29;20489;-82
2023/09/27 03:32:47;;;;;;;17.88;7.95;;;;;;;;;;4863508;29;20383;-81
2023/09/27 03:35:33;;;;;;;17.65;8.65;;;;;;;;;;4870884;29;20496;-82
2023/09/27 03:38:19;;;;;;;17.13;8.40;;;;;;;;;;4872743;29;20400;-82
2023/09/27 03:41:13;;;;;;;16.27;7.57;;;;;;;;;;4863619;29;20048;-83
2023/09/27 03:43:59;;;;;;;15.40;6.90;;;;;;;;;;4870736;29;20080;-82
2023/09/27 03:46:46;;;;;;;14.32;7.70;;;;;;;;;;4878710;29;20040;-82
2023/09/27 03:49:32;;;;;;;16.90;8.05;;;;;;;;;;4878365;29;20461;-83
2023/09/27 03:52:17;;;;;;;14.82;7.60;;;;;;;;;;4871640;29;20408;-82
2023/09/27 03:55:03;;;;;;;24.50;8.93;;;;;;;;;;4865734;29;20053;-82
2023/09/27 03:57:48;;;;;;;17.13;7.32;;;;;;;;;;4879862;29;20404;-83
2023/09/27 04:00:34;;;;;;;15.05;8.25;;;;;;;;;;4866822;29;20469;-83
2023/09/27 04:03:20;;;;;;;22.20;8.77;;;;;;;;;;4872519;29;20041;-82
2023/09/27 04:06:04;;;;;;;15.35;8.73;;;;;;;;;;4852546;29;20408;-82
2023/09/27 04:08:51;;;;;;;15.73;8.73;;;;;;;;;;4873671;29;20052;-82
2023/09/27 04:11:36;;;;;;;22.70;8.55;;;;;;;;;;4878814;29;20044;-82
2023/09/27 04:14:21;;;;;;;15.70;8.32;;;;;;;;;;4872457;29;20488;-82
2023/09/27 04:17:08;;;;;;;15.55;8.20;;;;;;;;;;4852010;29;20049;-82
2023/09/27 04:19:55;;;;;;;25.65;8.48;;;;;;;;;;4873316;29;20437;-83
2023/09/27 04:22:43;;;;;;;19.13;8.68;;;;;;;;;;4878054;29;20044;-82
2023/09/27 04:25:28;;;;;;;15.80;8.52;;;;;;;;;;4852848;29;20468;-83
2023/09/27 04:28:14;;;;;;;16.83;8.82;;;;;;;;;;4878546;29;20040;-84
2023/09/27 04:31:00;;;;;;;21.10;8.27;;;;;;;;;;4873165;29;20345;-81
2023/09/27 04:33:47;;;;;;;20.52;8.75;;;;;;;;;;4874218;29;20064;-81
2023/09/27 04:36:32;;;;;;;21.65;8.95;;;;;;;;;;4873091;29;20492;-83
2023/09/27 04:39:18;;;;;;;24.73;9.80;;;;;;;;;;4863488;29;20483;-83
2023/09/27 04:42:04;;;;;;;60.08;26.67;;;;;;;;;;4878819;29;20060;-83
2023/09/27 04:44:50;;;;;;;33.60;15.43;;;;;;;;;;4873325;29;20409;-84
2023/09/27 04:47:35;;;;;;;42.60;17.83;;;;;;;;;;4873477;29;20052;-84
2023/09/27 04:50:20;;;;;;;36.75;17.08;;;;;;;;;;4872216;29;20048;-83
2023/09/27 04:53:05;;;;;;;39.97;17.65;;;;;;;;;;4873347;29;20036;-83
2023/09/27 04:55:52;;;;;;;34.13;16.50;;;;;;;;;;4880468;29;20048;-83
2023/09/27 04:58:41;;;;;;;28.70;12.68;;;;;;;;;;4874249;29;20044;-83
2023/09/27 05:01:26;;;;;;;23.08;10.02;;;;;;;;;;4873770;29;20499;-84
2023/09/27 05:04:12;;;;;;;17.58;9.23;;;;;;;;;;4864864;29;20052;-82
2023/09/27 05:06:57;;;;;;;16.23;9.45;;;;;;;;;;4865188;29;20060;-82
2023/09/27 05:09:43;;;;;;;32.25;15.80;;;;;;;;;;4868576;29;20036;-83
2023/09/27 05:12:28;;;;;;;24.58;12.45;;;;;;;;;;4872163;29;20838;-83
2023/09/27 05:15:14;;;;;;;19.95;10.82;;;;;;;;;;4872376;29;20453;-82
2023/09/27 05:18:00;;;;;;;31.38;12.93;;;;;;;;;;4878512;29;20405;-81
2023/09/27 05:20:46;;;;;;;22.90;10.55;;;;;;;;;;4877586;29;20053;-83
2023/09/27 05:23:31;;;;;;;23.70;10.70;;;;;;;;;;4878119;29;20544;-84
2023/09/27 05:26:16;;;;;;;19.23;9.32;;;;;;;;;;4877707;29;20399;-82
2023/09/27 05:29:02;;;;;;;24.23;10.35;;;;;;;;;;4872351;29;20107;-84
2023/09/27 05:31:48;;;;;;;29.70;11.75;;;;;;;;;;4871800;29;20476;-83
2023/09/27 05:34:34;;;;;;;18.73;11.00;;;;;;;;;;4870794;29;20079;-82
2023/09/27 05:37:20;;;;;;;24.58;11.07;;;;;;;;;;4871346;29;20384;-83
2023/09/27 05:40:09;;;;;;;24.70;11.07;;;;;;;;;;4863872;29;20052;-84
2023/09/27 05:42:54;;;;;;;27.80;12.10;;;;;;;;;;4856755;29;20379;-82
2023/09/27 05:45:40;;;;;;;23.10;10.95;;;;;;;;;;4864258;29;20461;-83
2023/09/27 05:48:25;;;;;;;25.23;10.57;;;;;;;;;;4857176;29;20037;-83
2023/09/27 05:51:11;;;;;;;27.40;10.25;;;;;;;;;;4871062;29;20404;-82
2023/09/27 05:53:58;;;;;;;28.20;10.80;;;;;;;;;;4870323;29;20468;-83
2023/09/27 05:56:45;;;;;;;22.70;10.93;;;;;;;;;;4877414;29;20488;-81
2023/09/27 05:59:30;;;;;;;26.38;9.55;;;;;;;;;;4871265;29;20045;-83
2023/09/27 06:02:17;;;;;;;18.58;9.60;;;;;;;;;;4876690;29;20040;-82
2023/09/27 06:05:03;;;;;;;17.80;8.23;;;;;;;;;;4875375;29;20408;-84
2023/09/27 06:07:49;;;;;;;19.35;8.82;;;;;;;;;;4876092;29;20044;-84
2023/09/27 06:10:34;;;;;;;23.45;8.68;;;;;;;;;;4876587;29;20531;-84
2023/09/27 06:13:19;;;;;;;18.63;8.93;;;;;;;;;;4876589;29;20408;-83
2023/09/27 06:16:16;;;;;;;23.65;9.00;;;;;;;;;;4875788;29;20048;-83
2023/09/27 06:19:02;;;;;;;26.55;8.15;;;;;;;;;;4867628;29;20056;-82
2023/09/27 06:21:49;;;;;;;18.85;8.20;;;;;;;;;;4871105;29;20052;-82
2023/09/27 06:24:35;;;;;;;19.63;7.78;;;;;;;;;;4869379;29;20407;-82
2023/09/27 06:27:20;;;;;;;17.85;6.82;;;;;;;;;;4870935;29;20052;-83
2023/09/27 06:30:07;;;;;;;15.48;7.18;;;;;;;;;;4870983;29;20460;-82
2023/09/27 06:32:53;;;;;;;16.73;7.10;;;;;;;;;;4870416;29;20411;-83
2023/09/27 06:35:40;;;;;;;18.05;7.25;;;;;;;;;;4870298;29;20404;-82
2023/09/27 06:38:25;;;;;;;17.95;7.47;;;;;;;;;;4876105;29;20473;-83
2023/09/27 06:41:10;;;;;;;15.88;7.57;;;;;;;;;;4868914;29;20502;-82
2023/09/27 06:43:56;;;;;;;16.20;7.50;;;;;;;;;;4876600;29;20056;-80
2023/09/27 06:46:41;;;;;;;23.92;7.68;;;;;;;;;;4874794;29;20408;-80
2023/09/27 06:49:27;;;;;;;23.90;7.28;;;;;;;;;;4876984;29;20052;-82
2023/09/27 06:52:13;;;;;;;17.75;8.65;;;;;;;;;;4870559;29;20040;-81
2023/09/27 06:54:58;;;;;;;19.45;9.68;;;;;;;;;;4876036;29;20416;-81
2023/09/27 06:57:46;;;;;;;14.40;8.13;;;;;;;;;;4876310;29;20052;-80
2023/09/27 07:00:31;;;;;;;16.50;7.57;;;;;;;;;;4876219;29;20048;-82
2023/09/27 07:03:19;;;;;;;14.50;7.18;;;;;;;;;;4872207;29;20056;-82
2023/09/27 07:06:05;;;;;;;23.00;7.63;;;;;;;;;;4878425;29;20052;-82
2023/09/27 07:08:52;;;;;;;17.75;7.43;;;;;;;;;;4879376;29;20040;-82
2023/09/27 07:11:38;;;;;;;17.67;8.18;;;;;;;;;;4873540;29;20037;-82
2023/09/27 07:14:23;;;;;;;29.55;9.48;;;;;;;;;;4873295;29;20453;-83
2023/09/27 07:17:09;;;;;;;18.38;9.27;;;;;;;;;;4874106;29;20040;-82
2023/09/27 07:19:56;;;;;;;22.63;9.95;;;;;;;;;;4880613;29;20053;-82
2023/09/27 07:22:42;;;;;;;22.95;10.45;;;;;;;;;;4866070;29;20415;-81
2023/09/27 07:25:28;;;;;;;21.27;9.25;;;;;;;;;;4879906;29;20415;-83
2023/09/27 07:28:14;;;;;;;13.82;6.90;;;;;;;;;;4873747;29;20049;-81
2023/09/27 07:30:59;;;;;;;14.15;7.45;;;;;;;;;;4879038;29;20460;-81
2023/09/27 07:33:47;;;;;;;17.02;7.10;;;;;;;;;;4874706;29;20445;-82
2023/09/27 07:36:33;;;;;;;18.42;6.90;;;;;;;;;;4873659;29;20395;-82
2023/09/27 07:39:20;;;;;;;17.15;7.30;;;;;;;;;;4879232;29;20048;-81
2023/09/27 07:42:06;;;;;;;21.20;7.50;;;;;;;;;;4872417;29;20388;-83
2023/09/27 07:44:51;;;;;;;14.57;7.40;;;;;;;;;;4879382;29;20044;-81
2023/09/27 07:47:37;;;;;;;20.70;7.28;;;;;;;;;;4857556;29;20404;-81
2023/09/27 07:50:27;;;;;;;14.50;7.38;;;;;;;;;;4879315;29;20060;-81
2023/09/27 07:53:13;;;;;;;22.05;7.10;;;;;;;;;;4879176;29;20060;-81
2023/09/27 07:56:00;;;;;;;26.88;7.13;;;;;;;;;;4880035;29;20040;-81
2023/09/27 07:58:51;;;;;;;22.30;7.15;;;;;;;;;;4879703;29;20453;-81
2023/09/27 08:01:37;;;;;;;17.17;6.80;;;;;;;;;;4878246;29;20052;-81
2023/09/27 08:04:22;;;;;;;12.68;6.70;;;;;;;;;;4877928;29;20456;-80
2023/09/27 08:07:08;;;;;;;17.05;7.40;;;;;;;;;;4879282;29;20464;-81
2023/09/27 08:09:53;;;;;;;15.90;6.25;;;;;;;;;;4873376;29;20049;-81
2023/09/27 08:12:39;;;;;;;14.98;6.57;;;;;;;;;;4872959;29;20048;-80
2023/09/27 08:15:24;;;;;;;27.55;6.82;;;;;;;;;;4875551;29;20056;-80
2023/09/27 08:18:09;;;;;;;18.65;6.80;;;;;;;;;;4879004;29;20399;-82
2023/09/27 08:20:55;;;;;;;23.65;7.85;;;;;;;;;;4872997;29;20488;-82
2023/09/27 08:23:41;;;;;;;16.75;7.55;;;;;;;;;;4878494;29;20045;-83
2023/09/27 08:26:27;;;;;;;20.70;7.65;;;;;;;;;;4872761;29;20392;-79
2023/09/27 08:29:13;;;;;;;15.30;6.88;;;;;;;;;;4864775;29;20036;-78
2023/09/27 08:31:59;;;;;;;22.33;7.20;;;;;;;;;;4878322;29;20395;-80
2023/09/27 08:34:46;;;;;;;16.08;6.75;;;;;;;;;;4872603;29;20044;-81
2023/09/27 08:37:32;;;;;;;18.70;7.35;;;;;;;;;;4879049;29;20496;-80
2023/09/27 08:40:18;;;;;;;11.75;7.40;;;;;;;;;;4872223;29;20400;-81
2023/09/27 08:43:04;;;;;;;19.15;7.80;;;;;;;;;;4879040;29;20056;-81
2023/09/27 08:45:51;;;;;;;20.27;7.18;;;;;;;;;;4878448;29;20049;-78
2023/09/27 08:48:37;;;;;;;14.25;7.05;;;;;;;;;;4878696;29;20483;-81
2023/09/27 08:51:26;;;;;;;15.63;6.97;;;;;;;;;;4871857;29;20465;-79
2023/09/27 08:54:16;;;;;;;19.20;6.80;;;;;;;;;;4871222;29;20368;-81
2023/09/27 08:57:03;;;;;;;17.67;7.05;;;;;;;;;;4871972;29;20048;-80
2023/09/27 08:59:49;;;;;;;17.58;6.47;;;;;;;;;;4877567;29;20044;-80
2023/09/27 09:02:35;;;;;;;13.65;6.55;;;;;;;;;;4872267;29;20052;-80
2023/09/27 09:05:22;;;;;;;23.73;6.50;;;;;;;;;;4871627;29;20044;-81
2023/09/27 09:08:07;;;;;;;12.55;6.20;;;;;;;;;;4871136;29;20364;-82
2023/09/27 09:10:53;;;;;;;15.10;5.70;;;;;;;;;;4878115;29;20056;-81
2023/09/27 09:13:59;;;;;;;15.85;5.93;;;;;;;;;;4872364;29;20399;-82
2023/09/27 09:16:52;;;;;;;17.15;5.68;;;;;;;;;;4876990;29;20048;-80
2023/09/27 09:19:41;;;;;;;14.77;5.63;;;;;;;;;;4864067;29;20060;-81
2023/09/27 09:22:30;;;;;;;12.43;4.90;;;;;;;;;;4877630;29;20516;-81
2023/09/27 09:25:16;;;;;;;13.15;4.57;;;;;;;;;;4876985;29;20404;-82
2023/09/27 09:28:09;;;;;;;17.27;5.55;;;;;;;;;;4877566;29;20404;-81
2023/09/27 09:30:56;;;;;;;10.23;4.28;;;;;;;;;;4877395;29;20040;-81
2023/09/27 09:33:42;;;;;;;11.43;4.38;;;;;;;;;;4870280;29;20463;-80
2023/09/27 09:36:28;;;;;;;14.07;4.55;;;;;;;;;;4877100;29;20057;-79
2023/09/27 09:39:14;;;;;;;8.00;4.40;;;;;;;;;;4870835;29;20044;-82
2023/09/27 09:42:00;;;;;;;13.05;4.50;;;;;;;;;;4870193;29;20045;-80
2023/09/27 09:44:58;;;;;;;13.85;4.32;;;;;;;;;;4869840;29;20457;-80
2023/09/27 09:47:44;;;;;;;11.38;3.92;;;;;;;;;;4876945;29;20321;-82
2023/09/27 09:50:30;;;;;;;9.50;3.15;;;;;;;;;;4877183;29;20044;-81
2023/09/27 09:53:17;;;;;;;9.80;3.67;;;;;;;;;;4876670;29;20405;-81
2023/09/27 09:56:05;;;;;;;8.07;3.75;;;;;;;;;;4871219;29;20485;-81
2023/09/27 09:58:58;;;;;;;13.35;3.65;;;;;;;;;;4871153;29;20041;-82
2023/09/27 10:01:45;;;;;;;8.85;3.50;;;;;;;;;;4877116;29;20400;-80
2023/09/27 10:04:32;;;;;;;8.18;3.53;;;;;;;;;;4876741;29;20404;-80
2023/09/27 10:07:18;;;;;;;11.13;3.22;;;;;;;;;;4877117;29;20452;-78
2023/09/27 10:10:05;;;;;;;14.25;3.80;;;;;;;;;;4876446;29;20411;-81
2023/09/27 10:12:54;;;;;;;9.88;3.70;;;;;;;;;;4870463;29;20040;-80
2023/09/27 10:15:41;;;;;;;13.98;3.90;;;;;;;;;;4871114;29;20396;-79
2023/09/27 10:18:36;;;;;;;9.77;4.10;;;;;;;;;;4877261;29;20048;-80
2023/09/27 10:21:22;;;;;;;11.05;3.17;;;;;;;;;;4870283;29;20041;-79
2023/09/27 10:24:08;;;;;;;14.90;3.67;;;;;;;;;;4875484;29;20396;-81
2023/09/27 10:26:53;;;;;;;9.60;3.50;;;;;;;;;;4870796;29;20057;-81
2023/09/27 10:29:56;;;;;;;12.43;3.42;;;;;;;;;;4877202;29;20488;-81
2023/09/27 10:32:43;;;;;;;12.70;3.35;;;;;;;;;;4861963;29;20060;-83
2023/09/27 10:35:28;;;;;;;5.65;3.45;;;;;;;;;;4870485;29;20052;-80
2023/09/27 10:38:15;;;;;;;7.30;3.58;;;;;;;;;;4870172;29;20044;-80
2023/09/27 10:41:03;;;;;;;9.48;3.30;;;;;;;;;;4870125;29;20041;-82
2023/09/27 10:43:48;;;;;;;6.78;3.17;;;;;;;;;;4868720;29;20456;-81
2023/09/27 10:46:44;;;;;;;7.50;3.30;;;;;;;;;;4870039;29;20460;-81
2023/09/27 10:49:38;;;;;;;15.23;3.75;;;;;;;;;;4875696;29;20044;-81
2023/09/27 10:52:25;;;;;;;;;;;;;;;;;;4877244;29;20048;-82
2023/09/27 10:55:12;;;;;;;10.90;3.63;;;;;;;;;;4869302;29;20018;-82
2023/09/27 10:57:57;;;;;;;10.55;3.40;;;;;;;;;;4862392;29;20420;-82
2023/09/27 11:00:57;;;;;;;10.70;3.55;;;;;;;;;;4876822;29;20404;-81
2023/09/27 11:03:43;;;;;;;12.98;3.58;;;;;;;;;;4869347;29;20044;-81
2023/09/27 11:06:31;;;;;;;8.48;3.72;;;;;;;;;;4876230;29;20049;-81
2023/09/27 11:09:19;;;;;;;9.85;3.30;;;;;;;;;;4869872;29;20411;-81
2023/09/27 11:12:05;;;;;;;7.10;3.42;;;;;;;;;;4876907;29;20052;-81
2023/09/27 11:14:50;;;;;;;12.10;3.58;;;;;;;;;;4870637;29;20489;-81
2023/09/27 11:17:35;;;;;;;9.07;3.50;;;;;;;;;;4876463;29;20052;-81
2023/09/27 11:20:22;;;;;;;8.80;3.70;;;;;;;;;;4870189;29;20044;-82
2023/09/27 11:23:08;;;;;;;9.40;3.53;;;;;;;;;;4873623;29;20053;-82
2023/09/27 11:25:54;;;;;;;6.15;3.35;;;;;;;;;;4876061;29;20048;-82
2023/09/27 11:28:39;;;;;;;9.98;3.67;;;;;;;;;;4872714;29;20044;-80
2023/09/27 11:31:27;;;;;;;8.07;3.15;;;;;;;;;;4879446;29;20049;-80
2023/09/27 11:34:21;;;;;;;9.00;3.45;;;;;;;;;;4867379;29;20048;-79
2023/09/27 11:37:17;;;;;;;14.65;3.72;;;;;;;;;;4880319;29;20049;-79
2023/09/27 11:40:03;;;;;;;6.47;3.08;;;;;;;;;;4881078;29;20408;-80
2023/09/27 11:42:49;;;;;;;6.72;2.78;;;;;;;;;;4879446;29;20044;-81
2023/09/27 11:45:46;;;;;;;10.57;3.45;;;;;;;;;;4880232;29;20048;-80
2023/09/27 11:48:34;;;;;;;8.88;3.75;;;;;;;;;;4873556;29;20037;-81
2023/09/27 11:51:20;;;;;;;6.55;3.20;;;;;;;;;;4859159;29;20064;-80
2023/09/27 11:54:05;;;;;;;9.15;3.25;;;;;;;;;;4889769;29;20404;-82
2023/09/27 11:56:53;;;;;;;7.82;3.47;;;;;;;;;;4881880;29;20396;-80
2023/09/27 11:59:39;;;;;;;5.90;3.10;;;;;;;;;;4888625;29;20052;-81
2023/09/27 12:02:26;;;;;;;13.38;4.00;;;;;;;;;;4882730;29;20408;-81
2023/09/27 12:05:10;;;;;;;7.13;3.00;;;;;;;;;;4882139;29;20049;-82
2023/09/27 12:07:56;;;;;;;9.95;3.30;;;;;;;;;;4874298;29;20056;-80
2023/09/27 12:10:42;;;;;;;7.13;2.90;;;;;;;;;;4879037;29;20384;-81
2023/09/27 12:13:27;;;;;;;10.45;3.05;;;;;;;;;;4883282;29;20041;-81
2023/09/27 12:16:13;;;;;;;10.30;2.83;;;;;;;;;;4882691;29;21517;-81
2023/09/27 12:18:59;;;;;;;6.63;2.92;;;;;;;;;;4877404;29;20396;-82
2023/09/27 12:21:44;;;;;;;5.30;2.72;;;;;;;;;;4882866;29;20045;-80
2023/09/27 12:24:30;;;;;;;7.90;2.47;;;;;;;;;;4881419;29;20053;-82
2023/09/27 12:27:16;;;;;;;8.77;3.08;;;;;;;;;;4878741;29;20400;-81
2023/09/27 12:30:03;;;;;;;5.53;2.50;;;;;;;;;;4878304;29;20465;-81
2023/09/27 12:32:49;;;;;;;5.85;2.58;;;;;;;;;;4870980;29;20048;-81
2023/09/27 12:35:34;;;;;;;5.15;2.88;;;;;;;;;;4878931;29;20412;-81
2023/09/27 12:38:19;;;;;;;9.75;3.03;;;;;;;;;;4878032;29;20116;-82
2023/09/27 12:41:07;;;;;;;9.60;3.30;;;;;;;;;;4877778;29;20408;-81
2023/09/27 12:43:53;;;;;;;10.40;2.78;;;;;;;;;;4878652;29;20044;-80
2023/09/27 12:46:39;;;;;;;7.20;3.17;;;;;;;;;;4872726;29;20495;-81
2023/09/27 12:49:25;;;;;;;5.13;2.50;;;;;;;;;;4877882;29;20401;-80
2023/09/27 12:52:10;;;;;;;7.13;2.50;;;;;;;;;;4871900;29;20473;-80
2023/09/27 12:54:56;;;;;;;7.97;2.80;;;;;;;;;;4878552;29;20048;-79
2023/09/27 12:57:41;;;;;;;8.60;3.10;;;;;;;;;;4869976;29;20040;-78
2023/09/27 13:00:27;;;;;;;5.88;2.75;;;;;;;;;;4870629;29;20052;-81
2023/09/27 13:03:13;;;;;;;8.98;2.78;;;;;;;;;;4870917;29;20036;-82
2023/09/27 13:05:58;;;;;;;7.60;2.78;;;;;;;;;;4876955;29;20487;-80
2023/09/27 13:08:43;;;;;;;7.03;2.30;;;;;;;;;;4876816;29;20048;-81
2023/09/27 13:11:28;;;;;;;11.63;2.95;;;;;;;;;;4866106;29;20048;-80
2023/09/27 13:14:13;;;;;;;8.30;2.85;;;;;;;;;;4871134;29;20048;-82
2023/09/27 13:16:59;;;;;;;12.68;3.13;;;;;;;;;;4870960;29;20396;-82
2023/09/27 13:19:45;;;;;;;8.15;2.85;;;;;;;;;;4871702;29;20056;-80
2023/09/27 13:22:31;;;;;;;4.57;2.63;;;;;;;;;;4870958;29;20057;-80
2023/09/27 13:25:17;;;;;;;10.15;2.88;;;;;;;;;;4877802;29;20056;-81
2023/09/27 13:28:02;;;;;;;6.38;2.80;;;;;;;;;;4871747;29;20039;-81
2023/09/27 13:30:48;;;;;;;5.70;2.45;;;;;;;;;;4876941;29;20392;-79
2023/09/27 13:33:34;;;;;;;11.07;3.10;;;;;;;;;;4875026;29;20049;-81
2023/09/27 13:36:19;;;;;;;8.43;2.90;;;;;;;;;;4877846;29;20396;-81
2023/09/27 13:39:05;;;;;;;18.30;3.40;;;;;;;;;;4878373;29;20053;-79
2023/09/27 13:41:51;;;;;;;9.60;2.55;;;;;;;;;;4877856;29;20044;-81
2023/09/27 13:44:37;;;;;;;11.15;2.92;;;;;;;;;;4877828;29;20441;-81
2023/09/27 13:47:22;;;;;;;12.32;3.03;;;;;;;;;;4876535;29;20473;-80
2023/09/27 13:50:09;;;;;;;9.48;3.10;;;;;;;;;;4876931;29;20053;-80
2023/09/27 13:52:55;;;;;;;13.80;3.10;;;;;;;;;;4871001;29;20492;-81
2023/09/27 13:55:40;;;;;;;14.93;2.97;;;;;;;;;;4862829;29;20065;-80
2023/09/27 13:58:25;;;;;;;9.02;3.00;;;;;;;;;;4876208;29;20044;-82
2023/09/27 14:01:11;;;;;;;6.07;3.00;;;;;;;;;;4876608;29;20048;-81
2023/09/27 14:04:00;;;;;;;7.13;3.10;;;;;;;;;;4869943;29;20128;-81
2023/09/27 14:06:45;;;;;;;11.60;2.92;;;;;;;;;;4876978;29;20048;-80
2023/09/27 14:09:31;;;;;;;11.38;3.13;;;;;;;;;;4877388;29;20052;-79
2023/09/27 14:12:16;;;;;;;8.73;3.30;;;;;;;;;;4876515;29;20048;-80
2023/09/27 14:15:02;;;;;;;10.75;2.78;;;;;;;;;;4870907;29;20056;-80
2023/09/27 14:17:48;;;;;;;11.40;3.10;;;;;;;;;;4876965;29;20041;-80
2023/09/27 14:20:33;;;;;;;10.82;3.17;;;;;;;;;;4862741;29;20488;-82
2023/09/27 14:23:19;;;;;;;7.60;2.90;;;;;;;;;;4869830;29;20049;-81
2023/09/27 14:26:04;;;;;;;10.88;3.05;;;;;;;;;;4876542;29;20052;-80
2023/09/27 14:28:50;;;;;;;15.07;3.38;;;;;;;;;;4870132;29;20131;-80
2023/09/27 14:31:35;;;;;;;11.30;3.17;;;;;;;;;;4876156;29;20413;-81
2023/09/27 14:34:21;;;;;;;8.60;3.13;;;;;;;;;;4870545;29;20048;-80
2023/09/27 14:37:06;;;;;;;9.90;3.38;;;;;;;;;;4876184;29;20049;-81
2023/09/27 14:39:52;;;;;;;11.52;3.03;;;;;;;;;;4872013;29;20450;-80
2023/09/27 14:42:39;;;;;;;5.95;3.00;;;;;;;;;;4875634;29;20052;-81
2023/09/27 14:45:25;;;;;;;10.73;3.10;;;;;;;;;;4876207;29;20052;-80
2023/09/27 14:48:10;;;;;;;11.95;3.30;;;;;;;;;;4875147;29;20682;-81
2023/09/27 14:50:55;;;;;;;14.43;3.08;;;;;;;;;;4869905;29;20052;-80
2023/09/27 14:53:43;;;;;;;8.40;2.90;;;;;;;;;;4874712;29;20484;-80
2023/09/27 14:56:28;;;;;;;10.45;3.38;;;;;;;;;;4870442;29;20045;-79
2023/09/27 14:59:13;;;;;;;11.32;3.50;;;;;;;;;;4862693;29;20349;-80
2023/09/27 15:01:58;;;;;;;9.88;3.10;;;;;;;;;;4869070;29;20472;-79
2023/09/27 15:04:45;;;;;;;11.45;3.08;;;;;;;;;;4876563;29;20060;-81
2023/09/27 15:07:30;;;;;;;10.07;3.17;;;;;;;;;;4862440;29;20044;-79
2023/09/27 15:10:16;;;;;;;7.35;2.90;;;;;;;;;;4877090;29;20052;-78
2023/09/27 15:13:05;;;;;;;6.00;3.35;;;;;;;;;;4875310;29;20041;-79
2023/09/27 15:15:50;;;;;;;12.88;3.65;;;;;;;;;;4875815;29;20056;-80
2023/09/27 15:18:35;;;;;;;13.52;3.72;;;;;;;;;;4868409;29;20045;-79
2023/09/27 15:21:21;;;;;;;11.15;3.53;;;;;;;;;;4875613;29;20460;-79
2023/09/27 15:24:07;;;;;;;6.95;3.53;;;;;;;;;;4877374;29;20048;-78
2023/09/27 15:26:53;;;;;;;10.90;3.25;;;;;;;;;;4879854;29;20048;-79
2023/09/27 15:29:39;;;;;;;14.35;4.07;;;;;;;;;;4879903;29;20064;-81
2023/09/27 15:32:24;;;;;;;7.55;3.42;;;;;;;;;;4873298;29;20049;-80
2023/09/27 15:35:10;;;;;;;11.88;3.10;;;;;;;;;;4879846;29;20416;-80
2023/09/27 15:37:56;;;;;;;8.82;2.95;;;;;;;;;;4873040;29;20041;-79
2023/09/27 15:40:41;;;;;;;10.52;2.80;;;;;;;;;;4865372;29;20464;-79
2023/09/27 15:43:29;;;;;;;12.68;3.58;;;;;;;;;;4865209;29;20071;-81
2023/09/27 15:46:15;;;;;;;15.75;4.10;;;;;;;;;;4872869;29;20049;-79
2023/09/27 15:49:01;;;;;;;15.02;3.95;;;;;;;;;;4879921;29;20057;-79
2023/09/27 15:51:46;;;;;;;15.40;3.70;;;;;;;;;;4872862;29;20053;-79
2023/09/27 15:54:33;;;;;;;20.42;4.80;;;;;;;;;;4879174;29;20420;-79
2023/09/27 15:57:18;;;;;;;14.68;5.00;;;;;;;;;;4879194;29;20048;-79
2023/09/27 16:00:07;;;;;;;11.90;5.10;;;;;;;;;;4864280;29;20036;-80
2023/09/27 16:02:55;;;;;;;13.48;4.63;;;;;;;;;;4871744;29;20041;-80
2023/09/27 16:05:44;;;;;;;14.45;3.88;;;;;;;;;;4879006;29;20049;-80
2023/09/27 16:08:30;;;;;;;13.00;5.50;;;;;;;;;;4878661;29;20056;-78
2023/09/27 16:11:24;;;;;;;13.48;5.00;;;;;;;;;;4872568;29;20396;-80
2023/09/27 16:14:09;;;;;;;17.17;5.95;;;;;;;;;;4876358;29;20416;-80
2023/09/27 16:16:56;;;;;;;22.83;5.35;;;;;;;;;;4877391;29;20056;-80
2023/09/27 16:19:42;;;;;;;20.92;8.77;;;;;;;;;;4878276;29;20040;-80
2023/09/27 16:22:27;;;;;;;57.45;21.52;;;;;;;;;;4871407;29;20401;-81
2023/09/27 16:25:12;;;;;;;45.65;17.67;;;;;;;;;;4877770;29;20496;-81